sensor_id;sensor_type;location;lat;lon;timestamp;temperature;humidity
3678;DHT22;1855;50.934;6.958;2024-01-10T00:00:04;-4.10;99.90
3678;DHT22;1855;50.934;6.958;2024-01-10T00:02:31;-4.10;99.90
3678;DHT22;1855;50.934;6.958;2024-01-10T00:04:58;-4.20;99.90
3678;DHT22;1855;50.934;6.958;2024-01-10T00:07:25;-4.10;99.90
3678;DHT22;1855;50.934;6.958;2024-01-10T00:09:52;-4.10;99.90
3678;DHT22;1855;50.934;6.958;2024-01-10T00:12:18;-4.10;99.90
3678;DHT22;1855;50.934;6.958;2024-01-10T00:14:46;-4.10;99.90
3678;DHT22;1855;50.934;6.958;2024-01-10T00:17:13;-4.10;99.90
3678;DHT22;1855;50.934;6.958;2024-01-10T00:19:40;-4.10;99.90
3678;DHT22;1855;50.934;6.958;2024-01-10T00:22:07;-4.10;99.90
3678;DHT22;1855;50.934;6.958;2024-01-10T00:24:34;-4.20;99.90
3678;DHT22;1855;50.934;6.958;2024-01-10T00:27:00;-4.20;99.90
3678;DHT22;1855;50.934;6.958;2024-01-10T00:29:27;-4.30;99.90
3678;DHT22;1855;50.934;6.958;2024-01-10T00:31:55;-4.30;99.90
3678;DHT22;1855;50.934;6.958;2024-01-10T00:34:24;-4.30;99.90
3678;DHT22;1855;50.934;6.958;2024-01-10T00:36:52;-4.40;99.90
3678;DHT22;1855;50.934;6.958;2024-01-10T00:39:19;-4.40;99.90
3678;DHT22;1855;50.934;6.958;2024-01-10T00:41:45;-4.50;99.90
3678;DHT22;1855;50.934;6.958;2024-01-10T00:44:12;-4.50;99.90
3678;DHT22;1855;50.934;6.958;2024-01-10T00:46:39;-4.50;99.90
3678;DHT22;1855;50.934;6.958;2024-01-10T00:49:07;-4.50;99.90
3678;DHT22;1855;50.934;6.958;2024-01-10T00:51:33;-4.50;99.90
3678;DHT22;1855;50.934;6.958;2024-01-10T00:54:00;-4.60;99.90
3678;DHT22;1855;50.934;6.958;2024-01-10T00:56:27;-4.50;99.90
3678;DHT22;1855;50.934;6.958;2024-01-10T00:58:54;-4.50;99.90
3678;DHT22;1855;50.934;6.958;2024-01-10T01:01:23;-4.50;99.60
3678;DHT22;1855;50.934;6.958;2024-01-10T01:03:50;-4.50;99.30
3678;DHT22;1855;50.934;6.958;2024-01-10T01:06:18;-4.40;99.10
3678;DHT22;1855;50.934;6.958;2024-01-10T01:08:45;-4.40;99.40
3678;DHT22;1855;50.934;6.958;2024-01-10T01:11:11;-4.40;99.40
3678;DHT22;1855;50.934;6.958;2024-01-10T01:13:40;-4.50;99.50
3678;DHT22;1855;50.934;6.958;2024-01-10T01:16:06;-4.40;99.00
3678;DHT22;1855;50.934;6.958;2024-01-10T01:18:34;-4.40;98.50
3678;DHT22;1855;50.934;6.958;2024-01-10T01:21:01;-4.40;97.90
3678;DHT22;1855;50.934;6.958;2024-01-10T01:23:29;-4.40;98.50
3678;DHT22;1855;50.934;6.958;2024-01-10T01:25:56;-4.40;98.50
3678;DHT22;1855;50.934;6.958;2024-01-10T01:28:23;-4.40;98.70
3678;DHT22;1855;50.934;6.958;2024-01-10T01:30:49;-4.40;98.10
3678;DHT22;1855;50.934;6.958;2024-01-10T01:33:16;-4.50;98.40
3678;DHT22;1855;50.934;6.958;2024-01-10T01:35:43;-4.50;98.40
3678;DHT22;1855;50.934;6.958;2024-01-10T01:38:10;-4.50;98.20
3678;DHT22;1855;50.934;6.958;2024-01-10T01:40:38;-4.50;97.80
3678;DHT22;1855;50.934;6.958;2024-01-10T01:43:18;-4.50;97.30
3678;DHT22;1855;50.934;6.958;2024-01-10T01:45:45;-4.60;97.30
3678;DHT22;1855;50.934;6.958;2024-01-10T01:48:11;-4.60;97.30
3678;DHT22;1855;50.934;6.958;2024-01-10T01:50:38;-4.50;97.70
3678;DHT22;1855;50.934;6.958;2024-01-10T01:53:06;-4.50;97.70
3678;DHT22;1855;50.934;6.958;2024-01-10T01:55:33;-4.60;97.20
3678;DHT22;1855;50.934;6.958;2024-01-10T01:58:01;-4.60;97.00
3678;DHT22;1855;50.934;6.958;2024-01-10T02:00:28;-4.60;96.70
3678;DHT22;1855;50.934;6.958;2024-01-10T02:02:57;-4.60;97.30
3678;DHT22;1855;50.934;6.958;2024-01-10T02:05:25;-4.70;97.30
3678;DHT22;1855;50.934;6.958;2024-01-10T02:07:52;-4.70;96.40
3678;DHT22;1855;50.934;6.958;2024-01-10T02:10:21;-4.70;97.60
3678;DHT22;1855;50.934;6.958;2024-01-10T02:12:48;-4.60;98.10
3678;DHT22;1855;50.934;6.958;2024-01-10T02:15:16;-4.60;97.30
3678;DHT22;1855;50.934;6.958;2024-01-10T02:17:43;-4.60;97.80
3678;DHT22;1855;50.934;6.958;2024-01-10T02:20:10;-4.60;97.70
3678;DHT22;1855;50.934;6.958;2024-01-10T02:22:37;-4.60;97.90
3678;DHT22;1855;50.934;6.958;2024-01-10T02:25:06;-4.60;97.60
3678;DHT22;1855;50.934;6.958;2024-01-10T02:27:33;-4.60;97.70
3678;DHT22;1855;50.934;6.958;2024-01-10T02:30:02;-4.60;98.20
3678;DHT22;1855;50.934;6.958;2024-01-10T02:32:29;-4.60;97.90
3678;DHT22;1855;50.934;6.958;2024-01-10T02:34:55;-4.60;97.80
3678;DHT22;1855;50.934;6.958;2024-01-10T02:37:22;-4.70;97.80
3678;DHT22;1855;50.934;6.958;2024-01-10T02:39:50;-4.70;97.60
3678;DHT22;1855;50.934;6.958;2024-01-10T02:42:18;-4.70;97.90
3678;DHT22;1855;50.934;6.958;2024-01-10T02:44:44;-4.60;96.60
3678;DHT22;1855;50.934;6.958;2024-01-10T02:47:12;-4.60;96.60
3678;DHT22;1855;50.934;6.958;2024-01-10T02:49:39;-4.60;95.50
3678;DHT22;1855;50.934;6.958;2024-01-10T02:52:06;-4.70;95.50
3678;DHT22;1855;50.934;6.958;2024-01-10T02:54:32;-4.70;95.70
3678;DHT22;1855;50.934;6.958;2024-01-10T02:56:59;-4.60;97.00
3678;DHT22;1855;50.934;6.958;2024-01-10T02:59:27;-4.60;96.40
3678;DHT22;1855;50.934;6.958;2024-01-10T03:01:54;-4.70;95.80
3678;DHT22;1855;50.934;6.958;2024-01-10T03:04:21;-4.70;96.00
3678;DHT22;1855;50.934;6.958;2024-01-10T03:06:47;-4.80;95.90
3678;DHT22;1855;50.934;6.958;2024-01-10T03:09:14;-4.80;96.40
3678;DHT22;1855;50.934;6.958;2024-01-10T03:11:41;-4.80;97.00
3678;DHT22;1855;50.934;6.958;2024-01-10T03:14:08;-4.70;97.20
3678;DHT22;1855;50.934;6.958;2024-01-10T03:16:36;-4.60;98.60
3678;DHT22;1855;50.934;6.958;2024-01-10T03:19:03;-4.60;98.70
3678;DHT22;1855;50.934;6.958;2024-01-10T03:21:30;-4.50;98.90
3678;DHT22;1855;50.934;6.958;2024-01-10T03:23:58;-4.50;99.00
3678;DHT22;1855;50.934;6.958;2024-01-10T03:26:26;-4.50;98.50
3678;DHT22;1855;50.934;6.958;2024-01-10T03:28:53;-4.50;98.40
3678;DHT22;1855;50.934;6.958;2024-01-10T03:31:20;-4.60;98.10
3678;DHT22;1855;50.934;6.958;2024-01-10T03:33:48;-4.70;98.20
3678;DHT22;1855;50.934;6.958;2024-01-10T03:36:16;-4.80;98.80
3678;DHT22;1855;50.934;6.958;2024-01-10T03:38:44;-4.80;99.60
3678;DHT22;1855;50.934;6.958;2024-01-10T03:41:13;-4.70;99.90
3678;DHT22;1855;50.934;6.958;2024-01-10T03:43:40;-4.70;99.90
3678;DHT22;1855;50.934;6.958;2024-01-10T03:46:07;-4.70;99.90
3678;DHT22;1855;50.934;6.958;2024-01-10T03:48:34;-4.60;99.90
3678;DHT22;1855;50.934;6.958;2024-01-10T03:51:02;-4.60;99.90
3678;DHT22;1855;50.934;6.958;2024-01-10T03:55:56;-4.60;99.90
3678;DHT22;1855;50.934;6.958;2024-01-10T03:58:23;-4.60;99.90
3678;DHT22;1855;50.934;6.958;2024-01-10T04:00:50;-4.60;99.90
3678;DHT22;1855;50.934;6.958;2024-01-10T04:03:17;-4.70;99.90
3678;DHT22;1855;50.934;6.958;2024-01-10T04:05:44;-4.60;99.90
3678;DHT22;1855;50.934;6.958;2024-01-10T04:08:12;-4.50;99.90
3678;DHT22;1855;50.934;6.958;2024-01-10T04:10:38;-4.50;99.90
3678;DHT22;1855;50.934;6.958;2024-01-10T04:13:05;-4.60;99.90
3678;DHT22;1855;50.934;6.958;2024-01-10T04:15:32;-4.70;99.90
3678;DHT22;1855;50.934;6.958;2024-01-10T04:18:00;-4.80;99.90
3678;DHT22;1855;50.934;6.958;2024-01-10T04:20:26;-4.80;99.90
3678;DHT22;1855;50.934;6.958;2024-01-10T04:22:53;-4.90;99.90
3678;DHT22;1855;50.934;6.958;2024-01-10T04:25:21;-4.80;99.90
3678;DHT22;1855;50.934;6.958;2024-01-10T04:27:48;-4.80;99.90
3678;DHT22;1855;50.934;6.958;2024-01-10T04:30:15;-4.80;99.90
3678;DHT22;1855;50.934;6.958;2024-01-10T04:32:42;-4.70;99.90
3678;DHT22;1855;50.934;6.958;2024-01-10T04:35:09;-4.80;99.90
3678;DHT22;1855;50.934;6.958;2024-01-10T04:37:36;-4.80;99.90
3678;DHT22;1855;50.934;6.958;2024-01-10T04:40:03;-4.70;99.90
3678;DHT22;1855;50.934;6.958;2024-01-10T04:42:32;-4.60;99.90
3678;DHT22;1855;50.934;6.958;2024-01-10T04:44:59;-4.60;99.90
3678;DHT22;1855;50.934;6.958;2024-01-10T04:47:25;-4.60;99.90
3678;DHT22;1855;50.934;6.958;2024-01-10T04:49:52;-4.60;99.90
3678;DHT22;1855;50.934;6.958;2024-01-10T04:52:19;-4.60;99.90
3678;DHT22;1855;50.934;6.958;2024-01-10T04:54:45;-4.60;99.90
3678;DHT22;1855;50.934;6.958;2024-01-10T04:57:12;-4.50;99.90
3678;DHT22;1855;50.934;6.958;2024-01-10T04:59:40;-4.60;99.90
3678;DHT22;1855;50.934;6.958;2024-01-10T05:02:07;-4.60;99.90
3678;DHT22;1855;50.934;6.958;2024-01-10T05:04:34;-4.60;99.90
3678;DHT22;1855;50.934;6.958;2024-01-10T05:07:01;-4.70;99.90
3678;DHT22;1855;50.934;6.958;2024-01-10T05:09:27;-4.60;99.90
3678;DHT22;1855;50.934;6.958;2024-01-10T05:11:54;-4.60;99.90
3678;DHT22;1855;50.934;6.958;2024-01-10T05:14:21;-4.60;99.90
3678;DHT22;1855;50.934;6.958;2024-01-10T05:16:49;-4.60;99.90
3678;DHT22;1855;50.934;6.958;2024-01-10T05:19:17;-4.60;99.90
3678;DHT22;1855;50.934;6.958;2024-01-10T05:21:43;-4.60;99.90
3678;DHT22;1855;50.934;6.958;2024-01-10T05:24:10;-4.60;99.90
3678;DHT22;1855;50.934;6.958;2024-01-10T05:26:38;-4.60;99.90
3678;DHT22;1855;50.934;6.958;2024-01-10T05:29:04;-4.60;99.90
3678;DHT22;1855;50.934;6.958;2024-01-10T05:31:31;-4.60;99.90
3678;DHT22;1855;50.934;6.958;2024-01-10T05:33:59;-4.70;99.90
3678;DHT22;1855;50.934;6.958;2024-01-10T05:36:26;-4.60;99.90
3678;DHT22;1855;50.934;6.958;2024-01-10T05:38:53;-4.70;99.90
3678;DHT22;1855;50.934;6.958;2024-01-10T05:41:19;-4.70;99.90
3678;DHT22;1855;50.934;6.958;2024-01-10T05:43:46;-4.70;99.90
3678;DHT22;1855;50.934;6.958;2024-01-10T05:46:13;-4.70;99.90
3678;DHT22;1855;50.934;6.958;2024-01-10T05:48:41;-4.70;99.90
3678;DHT22;1855;50.934;6.958;2024-01-10T05:51:09;-4.70;99.90
3678;DHT22;1855;50.934;6.958;2024-01-10T05:53:37;-4.70;99.90
3678;DHT22;1855;50.934;6.958;2024-01-10T05:56:06;-4.70;99.90
3678;DHT22;1855;50.934;6.958;2024-01-10T05:58:32;-4.80;99.90
3678;DHT22;1855;50.934;6.958;2024-01-10T06:00:59;-4.80;99.90
3678;DHT22;1855;50.934;6.958;2024-01-10T06:03:26;-4.80;99.90
3678;DHT22;1855;50.934;6.958;2024-01-10T06:05:53;-4.70;99.90
3678;DHT22;1855;50.934;6.958;2024-01-10T06:08:21;-4.80;99.90
3678;DHT22;1855;50.934;6.958;2024-01-10T06:10:51;-4.80;99.90
3678;DHT22;1855;50.934;6.958;2024-01-10T06:13:18;-4.70;99.90
3678;DHT22;1855;50.934;6.958;2024-01-10T06:15:44;-4.70;99.90
3678;DHT22;1855;50.934;6.958;2024-01-10T06:18:11;-4.70;99.90
3678;DHT22;1855;50.934;6.958;2024-01-10T06:20:38;-4.70;99.90
3678;DHT22;1855;50.934;6.958;2024-01-10T06:23:04;-4.70;99.90
3678;DHT22;1855;50.934;6.958;2024-01-10T06:25:33;-4.70;99.90
3678;DHT22;1855;50.934;6.958;2024-01-10T06:27:59;-4.70;99.90
3678;DHT22;1855;50.934;6.958;2024-01-10T06:30:26;-4.70;99.90
3678;DHT22;1855;50.934;6.958;2024-01-10T06:32:53;-4.70;99.90
3678;DHT22;1855;50.934;6.958;2024-01-10T06:35:20;-4.70;99.90
3678;DHT22;1855;50.934;6.958;2024-01-10T06:37:47;-4.80;99.90
3678;DHT22;1855;50.934;6.958;2024-01-10T06:40:14;-4.90;99.90
3678;DHT22;1855;50.934;6.958;2024-01-10T06:42:43;-4.90;99.90
3678;DHT22;1855;50.934;6.958;2024-01-10T06:45:10;-4.90;99.90
3678;DHT22;1855;50.934;6.958;2024-01-10T06:47:37;-5.00;99.90
3678;DHT22;1855;50.934;6.958;2024-01-10T06:50:05;-4.90;99.90
3678;DHT22;1855;50.934;6.958;2024-01-10T06:52:32;-4.90;99.90
3678;DHT22;1855;50.934;6.958;2024-01-10T06:54:59;-5.00;99.90
3678;DHT22;1855;50.934;6.958;2024-01-10T06:57:26;-5.00;99.90
3678;DHT22;1855;50.934;6.958;2024-01-10T06:59:54;-5.00;99.90
3678;DHT22;1855;50.934;6.958;2024-01-10T07:02:23;-5.00;99.90
3678;DHT22;1855;50.934;6.958;2024-01-10T07:04:49;-5.00;99.90
3678;DHT22;1855;50.934;6.958;2024-01-10T07:07:16;-5.00;99.90
3678;DHT22;1855;50.934;6.958;2024-01-10T07:09:43;-5.00;99.90
3678;DHT22;1855;50.934;6.958;2024-01-10T07:12:10;-5.10;99.90
3678;DHT22;1855;50.934;6.958;2024-01-10T07:14:36;-5.10;99.90
3678;DHT22;1855;50.934;6.958;2024-01-10T07:17:04;-5.00;99.90
3678;DHT22;1855;50.934;6.958;2024-01-10T07:19:31;-4.90;99.90
3678;DHT22;1855;50.934;6.958;2024-01-10T07:21:58;-4.90;99.90
3678;DHT22;1855;50.934;6.958;2024-01-10T07:24:26;-4.80;99.90
3678;DHT22;1855;50.934;6.958;2024-01-10T07:26:53;-4.80;99.90
3678;DHT22;1855;50.934;6.958;2024-01-10T07:29:19;-4.70;99.90
3678;DHT22;1855;50.934;6.958;2024-01-10T07:31:46;-4.70;99.90
3678;DHT22;1855;50.934;6.958;2024-01-10T07:34:14;-4.70;99.90
3678;DHT22;1855;50.934;6.958;2024-01-10T07:36:41;-4.70;99.90
3678;DHT22;1855;50.934;6.958;2024-01-10T07:39:09;-4.70;99.90
3678;DHT22;1855;50.934;6.958;2024-01-10T07:41:35;-4.80;99.90
3678;DHT22;1855;50.934;6.958;2024-01-10T07:44:02;-4.80;99.90
3678;DHT22;1855;50.934;6.958;2024-01-10T07:46:29;-4.80;99.90
3678;DHT22;1855;50.934;6.958;2024-01-10T07:48:56;-4.80;99.90
3678;DHT22;1855;50.934;6.958;2024-01-10T07:51:24;-4.80;99.90
3678;DHT22;1855;50.934;6.958;2024-01-10T07:53:51;-4.70;99.90
3678;DHT22;1855;50.934;6.958;2024-01-10T07:56:17;-4.60;99.90
3678;DHT22;1855;50.934;6.958;2024-01-10T07:58:45;-4.50;99.90
3678;DHT22;1855;50.934;6.958;2024-01-10T08:01:12;-4.40;99.90
3678;DHT22;1855;50.934;6.958;2024-01-10T08:03:38;-4.40;99.90
3678;DHT22;1855;50.934;6.958;2024-01-10T08:06:05;-4.40;99.90
3678;DHT22;1855;50.934;6.958;2024-01-10T08:08:34;-4.40;99.90
3678;DHT22;1855;50.934;6.958;2024-01-10T08:11:00;-4.40;99.90
3678;DHT22;1855;50.934;6.958;2024-01-10T08:13:27;-4.40;99.90
3678;DHT22;1855;50.934;6.958;2024-01-10T08:15:54;-4.40;99.90
3678;DHT22;1855;50.934;6.958;2024-01-10T08:18:21;-4.40;99.90
3678;DHT22;1855;50.934;6.958;2024-01-10T08:20:48;-4.50;99.90
3678;DHT22;1855;50.934;6.958;2024-01-10T08:23:15;-4.50;99.90
3678;DHT22;1855;50.934;6.958;2024-01-10T08:25:43;-4.50;99.90
3678;DHT22;1855;50.934;6.958;2024-01-10T08:28:09;-4.40;99.90
3678;DHT22;1855;50.934;6.958;2024-01-10T08:30:38;-4.40;99.90
3678;DHT22;1855;50.934;6.958;2024-01-10T08:33:05;-4.40;99.90
3678;DHT22;1855;50.934;6.958;2024-01-10T08:35:32;-4.40;99.90
3678;DHT22;1855;50.934;6.958;2024-01-10T08:37:59;-4.50;99.90
3678;DHT22;1855;50.934;6.958;2024-01-10T08:40:28;-4.50;99.90
3678;DHT22;1855;50.934;6.958;2024-01-10T08:42:56;-4.50;99.90
3678;DHT22;1855;50.934;6.958;2024-01-10T08:45:23;-4.40;99.90
3678;DHT22;1855;50.934;6.958;2024-01-10T08:47:50;-4.30;99.90
3678;DHT22;1855;50.934;6.958;2024-01-10T08:50:17;-4.30;99.90
3678;DHT22;1855;50.934;6.958;2024-01-10T08:52:43;-4.20;99.90
3678;DHT22;1855;50.934;6.958;2024-01-10T08:55:10;-4.20;99.00
3678;DHT22;1855;50.934;6.958;2024-01-10T08:57:37;-4.20;98.00
3678;DHT22;1855;50.934;6.958;2024-01-10T09:00:06;-4.20;98.30
3678;DHT22;1855;50.934;6.958;2024-01-10T09:02:37;-4.20;97.50
3678;DHT22;1855;50.934;6.958;2024-01-10T09:05:04;-4.10;96.00
3678;DHT22;1855;50.934;6.958;2024-01-10T09:07:33;-4.10;94.60
3678;DHT22;1855;50.934;6.958;2024-01-10T09:10:00;-4.00;95.00
3678;DHT22;1855;50.934;6.958;2024-01-10T09:12:27;-4.00;95.40
3678;DHT22;1855;50.934;6.958;2024-01-10T09:14:54;-4.00;94.30
3678;DHT22;1855;50.934;6.958;2024-01-10T09:17:22;-3.90;93.10
3678;DHT22;1855;50.934;6.958;2024-01-10T09:19:49;-3.80;93.20
3678;DHT22;1855;50.934;6.958;2024-01-10T09:22:16;-3.80;90.90
3678;DHT22;1855;50.934;6.958;2024-01-10T09:24:42;-3.70;90.90
3678;DHT22;1855;50.934;6.958;2024-01-10T09:27:10;-3.70;89.40
3678;DHT22;1855;50.934;6.958;2024-01-10T09:29:37;-3.70;90.60
3678;DHT22;1855;50.934;6.958;2024-01-10T09:32:04;-3.60;91.40
3678;DHT22;1855;50.934;6.958;2024-01-10T09:34:32;-3.60;90.30
3678;DHT22;1855;50.934;6.958;2024-01-10T09:36:59;-3.60;88.60
3678;DHT22;1855;50.934;6.958;2024-01-10T09:39:27;-3.50;89.10
3678;DHT22;1855;50.934;6.958;2024-01-10T09:41:53;-3.50;86.40
3678;DHT22;1855;50.934;6.958;2024-01-10T09:44:21;-3.40;86.40
3678;DHT22;1855;50.934;6.958;2024-01-10T09:46:51;-3.40;85.40
3678;DHT22;1855;50.934;6.958;2024-01-10T09:49:19;-3.30;84.80
3678;DHT22;1855;50.934;6.958;2024-01-10T09:51:49;-3.30;85.30
3678;DHT22;1855;50.934;6.958;2024-01-10T09:54:16;-3.30;80.80
3678;DHT22;1855;50.934;6.958;2024-01-10T09:56:45;-3.30;86.10
3678;DHT22;1855;50.934;6.958;2024-01-10T09:59:12;-3.20;84.20
3678;DHT22;1855;50.934;6.958;2024-01-10T10:01:38;-3.20;81.50
3678;DHT22;1855;50.934;6.958;2024-01-10T10:04:07;-3.20;82.30
3678;DHT22;1855;50.934;6.958;2024-01-10T10:06:36;-3.10;78.10
3678;DHT22;1855;50.934;6.958;2024-01-10T10:09:04;-3.10;77.40
3678;DHT22;1855;50.934;6.958;2024-01-10T10:11:30;-3.00;79.90
3678;DHT22;1855;50.934;6.958;2024-01-10T10:14:13;-3.00;84.00
3678;DHT22;1855;50.934;6.958;2024-01-10T10:16:40;-2.90;88.40
3678;DHT22;1855;50.934;6.958;2024-01-10T10:19:07;-2.70;85.80
3678;DHT22;1855;50.934;6.958;2024-01-10T10:21:37;-2.70;85.20
3678;DHT22;1855;50.934;6.958;2024-01-10T10:24:05;-2.60;81.90
3678;DHT22;1855;50.934;6.958;2024-01-10T10:26:33;-2.40;81.00
3678;DHT22;1855;50.934;6.958;2024-01-10T10:29:00;-2.20;74.10
3678;DHT22;1855;50.934;6.958;2024-01-10T10:31:27;-2.10;72.10
3678;DHT22;1855;50.934;6.958;2024-01-10T10:33:59;-2.00;72.20
3678;DHT22;1855;50.934;6.958;2024-01-10T10:36:26;-1.90;72.80
3678;DHT22;1855;50.934;6.958;2024-01-10T10:38:52;-1.90;71.40
3678;DHT22;1855;50.934;6.958;2024-01-10T10:41:21;-1.80;71.00
3678;DHT22;1855;50.934;6.958;2024-01-10T10:43:49;-1.80;69.10
3678;DHT22;1855;50.934;6.958;2024-01-10T10:46:16;-1.80;69.70
3678;DHT22;1855;50.934;6.958;2024-01-10T10:48:43;-1.80;70.10
3678;DHT22;1855;50.934;6.958;2024-01-10T10:51:11;-1.80;69.40
3678;DHT22;1855;50.934;6.958;2024-01-10T10:53:39;-1.90;67.30
3678;DHT22;1855;50.934;6.958;2024-01-10T10:56:07;-1.90;67.30
3678;DHT22;1855;50.934;6.958;2024-01-10T10:58:37;-1.80;67.80
3678;DHT22;1855;50.934;6.958;2024-01-10T11:01:09;-1.80;66.70
3678;DHT22;1855;50.934;6.958;2024-01-10T11:03:37;-1.80;67.80
3678;DHT22;1855;50.934;6.958;2024-01-10T11:06:05;-1.60;67.70
3678;DHT22;1855;50.934;6.958;2024-01-10T11:08:35;-1.50;68.00
3678;DHT22;1855;50.934;6.958;2024-01-10T11:11:06;-1.30;66.90
3678;DHT22;1855;50.934;6.958;2024-01-10T11:13:54;-1.20;65.70
3678;DHT22;1855;50.934;6.958;2024-01-10T11:16:46;-1.00;66.10
3678;DHT22;1855;50.934;6.958;2024-01-10T11:22:19;-0.80;64.90
3678;DHT22;1855;50.934;6.958;2024-01-10T11:24:49;-0.80;64.80
3678;DHT22;1855;50.934;6.958;2024-01-10T11:27:16;-0.70;65.00
3678;DHT22;1855;50.934;6.958;2024-01-10T11:29:46;-0.60;64.50
3678;DHT22;1855;50.934;6.958;2024-01-10T11:32:14;-0.50;64.20
3678;DHT22;1855;50.934;6.958;2024-01-10T11:34:55;-0.40;64.50
3678;DHT22;1855;50.934;6.958;2024-01-10T11:37:22;-0.30;64.60
3678;DHT22;1855;50.934;6.958;2024-01-10T11:39:50;-0.20;64.10
3678;DHT22;1855;50.934;6.958;2024-01-10T11:42:22;-0.20;63.20
3678;DHT22;1855;50.934;6.958;2024-01-10T11:44:50;-0.20;62.40
3678;DHT22;1855;50.934;6.958;2024-01-10T11:47:19;-0.10;62.60
3678;DHT22;1855;50.934;6.958;2024-01-10T11:49:56;-0.10;62.40
3678;DHT22;1855;50.934;6.958;2024-01-10T11:52:26;0.00;62.10
3678;DHT22;1855;50.934;6.958;2024-01-10T11:54:57;0.10;62.50
3678;DHT22;1855;50.934;6.958;2024-01-10T11:57:26;0.20;61.70
3678;DHT22;1855;50.934;6.958;2024-01-10T11:59:55;0.30;62.00
3678;DHT22;1855;50.934;6.958;2024-01-10T12:02:25;0.40;61.40
3678;DHT22;1855;50.934;6.958;2024-01-10T12:04:53;0.40;61.50
3678;DHT22;1855;50.934;6.958;2024-01-10T12:07:20;0.50;60.90
3678;DHT22;1855;50.934;6.958;2024-01-10T12:09:47;0.70;60.40
3678;DHT22;1855;50.934;6.958;2024-01-10T12:12:15;1.10;59.80
3678;DHT22;1855;50.934;6.958;2024-01-10T12:14:42;1.60;58.90
3678;DHT22;1855;50.934;6.958;2024-01-10T12:17:11;2.50;57.40
3678;DHT22;1855;50.934;6.958;2024-01-10T12:19:38;3.40;54.30
3678;DHT22;1855;50.934;6.958;2024-01-10T12:22:05;4.00;51.80
3678;DHT22;1855;50.934;6.958;2024-01-10T12:24:32;4.20;50.80
3678;DHT22;1855;50.934;6.958;2024-01-10T12:26:59;4.20;49.20
3678;DHT22;1855;50.934;6.958;2024-01-10T12:29:26;3.80;48.80
3678;DHT22;1855;50.934;6.958;2024-01-10T12:31:53;3.50;50.20
3678;DHT22;1855;50.934;6.958;2024-01-10T12:34:21;3.00;49.80
3678;DHT22;1855;50.934;6.958;2024-01-10T12:36:48;2.40;51.40
3678;DHT22;1855;50.934;6.958;2024-01-10T12:39:15;2.10;53.10
3678;DHT22;1855;50.934;6.958;2024-01-10T12:41:42;1.80;53.30
3678;DHT22;1855;50.934;6.958;2024-01-10T12:44:10;1.70;54.00
3678;DHT22;1855;50.934;6.958;2024-01-10T12:46:49;1.50;54.00
3678;DHT22;1855;50.934;6.958;2024-01-10T12:49:17;1.40;55.00
3678;DHT22;1855;50.934;6.958;2024-01-10T12:51:47;1.20;54.80
3678;DHT22;1855;50.934;6.958;2024-01-10T12:54:14;1.20;56.00
3678;DHT22;1855;50.934;6.958;2024-01-10T12:56:42;1.10;56.20
3678;DHT22;1855;50.934;6.958;2024-01-10T12:59:09;1.20;56.50
3678;DHT22;1855;50.934;6.958;2024-01-10T13:01:36;1.20;56.60
3678;DHT22;1855;50.934;6.958;2024-01-10T13:04:03;1.20;56.60
3678;DHT22;1855;50.934;6.958;2024-01-10T13:06:30;1.20;56.60
3678;DHT22;1855;50.934;6.958;2024-01-10T13:08:58;1.20;56.00
3678;DHT22;1855;50.934;6.958;2024-01-10T13:11:25;1.30;56.30
3678;DHT22;1855;50.934;6.958;2024-01-10T13:13:51;1.30;56.00
3678;DHT22;1855;50.934;6.958;2024-01-10T13:16:18;1.30;56.40
3678;DHT22;1855;50.934;6.958;2024-01-10T13:18:45;1.30;56.40
3678;DHT22;1855;50.934;6.958;2024-01-10T13:21:11;1.40;56.20
3678;DHT22;1855;50.934;6.958;2024-01-10T13:23:38;1.50;56.40
3678;DHT22;1855;50.934;6.958;2024-01-10T13:26:07;1.60;56.40
3678;DHT22;1855;50.934;6.958;2024-01-10T13:28:33;1.70;55.30
3678;DHT22;1855;50.934;6.958;2024-01-10T13:31:00;1.80;55.70
3678;DHT22;1855;50.934;6.958;2024-01-10T13:33:28;1.80;55.40
3678;DHT22;1855;50.934;6.958;2024-01-10T13:35:55;1.90;54.70
3678;DHT22;1855;50.934;6.958;2024-01-10T13:38:22;1.90;54.90
3678;DHT22;1855;50.934;6.958;2024-01-10T13:40:49;1.80;55.10
3678;DHT22;1855;50.934;6.958;2024-01-10T13:43:17;1.90;54.60
3678;DHT22;1855;50.934;6.958;2024-01-10T13:45:44;1.80;54.70
3678;DHT22;1855;50.934;6.958;2024-01-10T13:48:11;1.60;54.90
3678;DHT22;1855;50.934;6.958;2024-01-10T13:50:38;1.50;55.40
3678;DHT22;1855;50.934;6.958;2024-01-10T13:53:04;1.40;55.60
3678;DHT22;1855;50.934;6.958;2024-01-10T13:55:31;1.30;55.70
3678;DHT22;1855;50.934;6.958;2024-01-10T13:58:00;1.30;56.20
3678;DHT22;1855;50.934;6.958;2024-01-10T14:00:28;1.30;56.60
3678;DHT22;1855;50.934;6.958;2024-01-10T14:02:55;1.30;56.50
3678;DHT22;1855;50.934;6.958;2024-01-10T14:05:26;1.30;56.60
3678;DHT22;1855;50.934;6.958;2024-01-10T14:07:52;1.30;56.80
3678;DHT22;1855;50.934;6.958;2024-01-10T14:10:19;1.30;57.10
3678;DHT22;1855;50.934;6.958;2024-01-10T14:12:46;1.20;57.60
3678;DHT22;1855;50.934;6.958;2024-01-10T14:15:13;1.20;57.60
3678;DHT22;1855;50.934;6.958;2024-01-10T14:17:41;1.20;57.60
3678;DHT22;1855;50.934;6.958;2024-01-10T14:20:09;1.20;57.80
3678;DHT22;1855;50.934;6.958;2024-01-10T14:22:36;1.10;57.60
3678;DHT22;1855;50.934;6.958;2024-01-10T14:25:03;1.10;57.50
3678;DHT22;1855;50.934;6.958;2024-01-10T14:27:32;1.10;57.30
3678;DHT22;1855;50.934;6.958;2024-01-10T14:29:59;1.10;57.30
3678;DHT22;1855;50.934;6.958;2024-01-10T14:32:28;1.10;57.40
3678;DHT22;1855;50.934;6.958;2024-01-10T14:34:56;1.10;57.90
3678;DHT22;1855;50.934;6.958;2024-01-10T14:37:23;1.10;58.50
3678;DHT22;1855;50.934;6.958;2024-01-10T14:39:50;1.10;57.60
3678;DHT22;1855;50.934;6.958;2024-01-10T14:42:17;1.10;57.70
3678;DHT22;1855;50.934;6.958;2024-01-10T14:44:43;1.10;58.00
3678;DHT22;1855;50.934;6.958;2024-01-10T14:47:10;1.20;57.80
3678;DHT22;1855;50.934;6.958;2024-01-10T14:49:37;1.20;57.40
3678;DHT22;1855;50.934;6.958;2024-01-10T14:52:06;1.20;57.10
3678;DHT22;1855;50.934;6.958;2024-01-10T14:54:32;1.30;57.40
3678;DHT22;1855;50.934;6.958;2024-01-10T14:56:59;1.40;57.90
3678;DHT22;1855;50.934;6.958;2024-01-10T14:59:26;1.40;57.80
3678;DHT22;1855;50.934;6.958;2024-01-10T15:01:51;1.50;57.60
3678;DHT22;1855;50.934;6.958;2024-01-10T15:04:18;1.60;56.90
3678;DHT22;1855;50.934;6.958;2024-01-10T15:06:45;1.60;56.70
3678;DHT22;1855;50.934;6.958;2024-01-10T15:09:14;1.60;56.80
3678;DHT22;1855;50.934;6.958;2024-01-10T15:11:41;1.60;56.60
3678;DHT22;1855;50.934;6.958;2024-01-10T15:14:08;1.60;56.80
3678;DHT22;1855;50.934;6.958;2024-01-10T15:16:35;1.60;56.10
3678;DHT22;1855;50.934;6.958;2024-01-10T15:19:02;1.60;56.70
3678;DHT22;1855;50.934;6.958;2024-01-10T15:21:29;1.50;57.10
3678;DHT22;1855;50.934;6.958;2024-01-10T15:23:55;1.50;57.20
3678;DHT22;1855;50.934;6.958;2024-01-10T15:26:24;1.40;56.90
3678;DHT22;1855;50.934;6.958;2024-01-10T15:28:50;1.30;57.20
3678;DHT22;1855;50.934;6.958;2024-01-10T15:31:20;1.20;57.60
3678;DHT22;1855;50.934;6.958;2024-01-10T15:33:47;1.00;58.10
3678;DHT22;1855;50.934;6.958;2024-01-10T15:36:15;0.90;58.30
3678;DHT22;1855;50.934;6.958;2024-01-10T15:38:42;0.70;58.90
3678;DHT22;1855;50.934;6.958;2024-01-10T15:41:09;0.60;59.40
3678;DHT22;1855;50.934;6.958;2024-01-10T15:43:38;0.50;59.60
3678;DHT22;1855;50.934;6.958;2024-01-10T15:46:05;0.30;60.40
3678;DHT22;1855;50.934;6.958;2024-01-10T15:48:32;0.20;60.90
3678;DHT22;1855;50.934;6.958;2024-01-10T15:50:59;0.10;61.20
3678;DHT22;1855;50.934;6.958;2024-01-10T15:53:25;0.00;62.10
3678;DHT22;1855;50.934;6.958;2024-01-10T15:55:52;0.00;62.00
3678;DHT22;1855;50.934;6.958;2024-01-10T15:58:21;-0.10;62.30
3678;DHT22;1855;50.934;6.958;2024-01-10T16:00:49;-0.20;63.00
3678;DHT22;1855;50.934;6.958;2024-01-10T16:03:16;-0.20;63.00
3678;DHT22;1855;50.934;6.958;2024-01-10T16:05:43;-0.30;63.00
3678;DHT22;1855;50.934;6.958;2024-01-10T16:08:10;-0.40;63.90
3678;DHT22;1855;50.934;6.958;2024-01-10T16:10:37;-0.40;64.50